Time;durP1;ratioP1;P1;durP2;ratioP2;P2;SDS_P1;SDS_P2;PMS_P1;PMS_P2;Temp;Humidity;BMP_temperature;BMP_pressure;BME280_temperature;BME280_humidity;BME280_pressure;Samples;Min_cycle;Max_cycle;Signal;HPM_P1;HPM_P2
2022/03/18 00:02:17;;;;;;;10.55;3.50;;;2.80;99.90;;;;;;4974165;28;20043;-59
2022/03/18 00:04:43;;;;;;;5.90;3.47;;;3.00;99.90;;;;;;4956907;28;20524;-60
2022/03/18 00:07:09;;;;;;;9.63;4.20;;;;;;;;;;4962943;28;20484;-60
2022/03/18 00:09:34;;;;;;;7.95;4.60;;;3.00;99.90;;;;;;4993719;28;20042;-59
2022/03/18 00:12:00;;;;;;;7.22;4.28;;;3.00;99.90;;;;;;4975772;28;20411;-60
2022/03/18 00:14:26;;;;;;;8.93;3.55;;;;;;;;;;4993264;28;20042;-60
2022/03/18 00:16:52;;;;;;;8.75;4.32;;;2.70;99.90;;;;;;4993287;28;20042;-59
2022/03/18 00:19:18;;;;;;;8.02;4.22;;;2.60;99.90;;;;;;4976174;28;20133;-60
2022/03/18 00:21:43;;;;;;;7.22;4.25;;;2.50;99.90;;;;;;4993011;28;20038;-59
2022/03/18 00:24:09;;;;;;;11.05;4.60;;;;;;;;;;4993007;28;20042;-59
2022/03/18 00:26:35;;;;;;;9.82;4.50;;;2.60;99.90;;;;;;4975533;28;20130;-60
2022/03/18 00:29:01;;;;;;;10.05;3.97;;;;;;;;;;4975530;28;20070;-60
2022/03/18 00:31:27;;;;;;;9.40;4.10;;;;;;;;;;4975547;28;20050;-61
2022/03/18 00:33:53;;;;;;;8.30;3.90;;;2.50;99.90;;;;;;4975104;28;20042;-58
2022/03/18 00:36:18;;;;;;;11.02;4.40;;;2.60;99.90;;;;;;4959629;28;20488;-59
2022/03/18 00:38:44;;;;;;;15.88;5.70;;;2.60;99.90;;;;;;4975425;28;20045;-58
2022/03/18 00:41:09;;;;;;;11.27;4.53;;;2.50;99.90;;;;;;4959469;28;20043;-60
2022/03/18 00:43:39;;;;;;;11.35;4.25;;;;;;;;;;4992646;28;20052;-59
2022/03/18 00:46:06;;;;;;;7.78;3.60;;;2.60;99.90;;;;;;4977041;28;20046;-58
2022/03/18 00:54:01;;;;;;;6.63;3.70;;;;;;;;;;4972975;28;20046;-59
2022/03/18 00:56:27;;;;;;;5.65;3.42;;;2.20;99.90;;;;;;4972866;28;20121;-60
2022/03/18 00:58:53;;;;;;;6.28;3.65;;;2.30;99.90;;;;;;4955356;28;20046;-59
2022/03/18 01:01:18;;;;;;;7.57;3.50;;;2.20;99.90;;;;;;4972121;28;20050;-60
2022/03/18 01:03:44;;;;;;;6.15;3.50;;;;;;;;;;4972645;28;20083;-60
2022/03/18 01:06:10;;;;;;;5.40;3.33;;;2.10;99.90;;;;;;4972167;28;20043;-59
2022/03/18 01:08:35;;;;;;;4.50;4.05;;;2.30;99.90;;;;;;4973205;28;20041;-59
2022/03/18 01:11:04;;;;;;;7.50;3.40;;;2.20;99.90;;;;;;4992123;28;20038;-59
2022/03/18 01:13:30;;;;;;;5.70;3.35;;;;;;;;;;4975105;28;20054;-59
2022/03/18 01:15:55;;;;;;;9.35;4.07;;;2.30;99.90;;;;;;4992024;28;20042;-59
2022/03/18 01:18:21;;;;;;;8.82;3.53;;;2.20;99.90;;;;;;4974480;28;20046;-58
2022/03/18 01:20:47;;;;;;;9.85;4.07;;;;;;;;;;4992554;28;20244;-61
2022/03/18 01:23:13;;;;;;;5.30;3.53;;;2.40;99.90;;;;;;4974262;28;20045;-56
2022/03/18 01:25:38;;;;;;;6.43;3.35;;;2.20;99.90;;;;;;4974436;28;20046;-57
2022/03/18 01:28:06;;;;;;;9.55;4.50;;;2.20;99.90;;;;;;4975434;28;20072;-57
2022/03/18 01:30:32;;;;;;;10.23;4.47;;;2.10;99.90;;;;;;4975605;28;20484;-57
2022/03/18 01:33:01;;;;;;;9.10;4.90;;;2.10;99.90;;;;;;4992430;28;20446;-57
2022/03/18 01:35:27;;;;;;;7.20;3.70;;;2.20;99.90;;;;;;4975054;28;20050;-59
2022/03/18 01:37:53;;;;;;;8.32;3.55;;;2.10;99.90;;;;;;4975278;28;20090;-56
2022/03/18 01:40:19;;;;;;;5.90;4.07;;;;;;;;;;4975205;28;20042;-55
2022/03/18 01:42:45;;;;;;;6.60;3.50;;;1.80;99.90;;;;;;4974886;28;20039;-57
2022/03/18 01:45:11;;;;;;;7.35;3.60;;;2.00;99.90;;;;;;4966485;28;20043;-56
2022/03/18 01:47:42;;;;;;;8.85;5.32;;;2.00;99.90;;;;;;4955500;28;20034;-55
2022/03/18 01:50:08;;;;;;;6.15;3.90;;;;;;;;;;4972924;28;20051;-57
2022/03/18 01:52:34;;;;;;;6.22;4.30;;;2.00;99.90;;;;;;4955790;28;20134;-56
2022/03/18 01:55:00;;;;;;;10.50;4.47;;;2.00;99.90;;;;;;4955996;28;20125;-56
2022/03/18 01:57:28;;;;;;;8.52;4.75;;;1.90;99.90;;;;;;4955062;28;20048;-56
2022/03/18 01:59:54;;;;;;;8.35;4.57;;;;;;;;;;4954865;28;20043;-58
2022/03/18 02:02:20;;;;;;;8.77;4.60;;;;;;;;;;4972802;28;20404;-56
2022/03/18 02:04:47;;;;;;;6.53;4.05;;;2.00;99.90;;;;;;4972572;28;20055;-56
2022/03/18 02:07:13;;;;;;;7.47;4.68;;;;;;;;;;4978864;28;20115;-56
2022/03/18 02:09:40;;;;;;;6.93;3.70;;;2.10;99.90;;;;;;4973887;28;20042;-56
2022/03/18 02:12:07;;;;;;;7.38;3.50;;;1.90;99.90;;;;;;4992490;28;20042;-56
2022/03/18 02:14:36;;;;;;;7.93;3.95;;;1.90;99.90;;;;;;4992395;28;20476;-58
2022/03/18 02:17:03;;;;;;;6.70;3.88;;;;;;;;;;4991407;28;20070;-55
2022/03/18 02:19:29;;;;;;;5.90;3.88;;;;;;;;;;4995033;28;20133;-58
2022/03/18 02:21:56;;;;;;;6.88;3.63;;;1.80;99.90;;;;;;4977116;28;20047;-57
2022/03/18 02:24:23;;;;;;;8.40;4.50;;;;;;;;;;4977518;28;20046;-55
2022/03/18 02:26:50;;;;;;;7.75;4.25;;;;;;;;;;4995015;28;20076;-56
2022/03/18 02:29:18;;;;;;;5.05;3.88;;;2.00;99.90;;;;;;4994757;28;20038;-56
2022/03/18 02:31:44;;;;;;;5.55;3.78;;;;;;;;;;4977085;28;20047;-55
2022/03/18 02:34:10;;;;;;;4.88;4.30;;;2.00;99.90;;;;;;4993896;28;20042;-56
2022/03/18 02:36:36;;;;;;;7.15;3.80;;;;;;;;;;4977363;28;20034;-56
2022/03/18 02:39:03;;;;;;;7.15;4.35;;;2.10;99.90;;;;;;4994639;28;20566;-58
2022/03/18 02:41:29;;;;;;;5.70;3.83;;;1.90;99.90;;;;;;4994359;28;20038;-55
2022/03/18 02:43:55;;;;;;;8.48;4.07;;;;;;;;;;4976634;28;20507;-58
2022/03/18 02:46:21;;;;;;;5.07;3.75;;;1.70;99.90;;;;;;4975749;28;20031;-56
2022/03/18 02:48:47;;;;;;;4.75;3.65;;;1.90;99.90;;;;;;4974684;28;20046;-58
2022/03/18 02:51:13;;;;;;;7.00;4.32;;;1.80;99.90;;;;;;4957336;28;20104;-58
2022/03/18 02:53:39;;;;;;;6.15;4.22;;;1.90;99.90;;;;;;4974697;28;20038;-55
2022/03/18 02:56:06;;;;;;;6.72;4.75;;;1.70;99.90;;;;;;4957619;28;20515;-56
2022/03/18 02:58:32;;;;;;;6.75;4.38;;;2.00;99.90;;;;;;4975041;28;20039;-55
2022/03/18 03:00:58;;;;;;;4.35;3.67;;;;;;;;;;4975074;28;20092;-58
2022/03/18 03:03:23;;;;;;;6.95;3.97;;;1.80;99.90;;;;;;4957620;28;20096;-59
2022/03/18 03:08:33;;;;;;;11.38;5.10;;;1.80;99.90;;;;;;4992154;28;20039;-57
2022/03/18 03:10:59;;;;;;;6.15;4.45;;;;;;;;;;4994124;28;20042;-60
2022/03/18 03:13:25;;;;;;;8.10;4.45;;;1.70;99.90;;;;;;4994147;28;20088;-57
2022/03/18 03:15:51;;;;;;;6.82;4.45;;;;;;;;;;4993805;28;20046;-59
2022/03/18 03:18:16;;;;;;;6.15;4.15;;;1.90;99.90;;;;;;4976132;28;20482;-59
2022/03/18 03:20:42;;;;;;;5.75;4.78;;;1.80;99.90;;;;;;4975859;28;20059;-59
2022/03/18 03:23:09;;;;;;;7.50;4.88;;;;;;;;;;4976275;28;20073;-59
2022/03/18 03:25:35;;;;;;;8.10;5.05;;;1.90;99.90;;;;;;4994440;28;20042;-59
2022/03/18 03:28:00;;;;;;;6.82;4.43;;;2.00;99.90;;;;;;4976599;28;20573;-59
2022/03/18 03:30:26;;;;;;;6.38;5.05;;;2.00;99.90;;;;;;4992554;28;20038;-58
2022/03/18 03:32:52;;;;;;;6.82;4.63;;;1.80;99.90;;;;;;4975723;28;20495;-59
2022/03/18 03:35:18;;;;;;;7.88;4.38;;;1.90;99.90;;;;;;4993312;28;20043;-58
2022/03/18 03:37:44;;;;;;;7.43;4.15;;;;;;;;;;4993934;28;20038;-59
2022/03/18 03:40:13;;;;;;;10.65;5.75;;;;;;;;;;4961339;28;20546;-59
2022/03/18 03:42:40;;;;;;;8.93;5.45;;;1.90;99.90;;;;;;4955449;28;20056;-59
2022/03/18 03:45:06;;;;;;;7.65;4.30;;;;;;;;;;4945799;28;20114;-59
2022/03/18 03:47:32;;;;;;;7.85;5.65;;;1.90;99.90;;;;;;4974235;28;20042;-57
2022/03/18 03:49:58;;;;;;;10.00;5.18;;;;;;;;;;4956507;28;20057;-59
2022/03/18 03:52:24;;;;;;;11.07;5.22;;;;;;;;;;4974280;28;20049;-59
2022/03/18 03:54:49;;;;;;;10.35;5.90;;;;;;;;;;4974087;28;20125;-59
2022/03/18 03:57:15;;;;;;;7.07;4.68;;;1.90;99.90;;;;;;4973892;28;20074;-58
2022/03/18 03:59:41;;;;;;;11.52;5.15;;;;;;;;;;4957017;28;20051;-59
2022/03/18 04:02:08;;;;;;;11.45;4.95;;;;;;;;;;4973996;28;20481;-59
2022/03/18 04:04:34;;;;;;;7.95;4.70;;;;;;;;;;4974261;28;20509;-59
2022/03/18 04:07:00;;;;;;;9.13;4.90;;;1.70;99.90;;;;;;4978952;28;20056;-60
2022/03/18 04:09:26;;;;;;;7.95;4.85;;;1.50;99.90;;;;;;4993363;28;20396;-60
2022/03/18 04:11:51;;;;;;;9.05;5.22;;;1.70;99.90;;;;;;4993680;28;20077;-60
2022/03/18 04:14:17;;;;;;;7.63;4.93;;;;;;;;;;4976376;28;20657;-60
2022/03/18 04:16:44;;;;;;;7.70;5.25;;;1.70;99.90;;;;;;4993096;28;20038;-59
2022/03/18 04:19:11;;;;;;;8.77;4.40;;;1.60;99.90;;;;;;4975297;28;20491;-60
2022/03/18 04:21:36;;;;;;;6.30;4.65;;;1.60;99.90;;;;;;4975459;28;20049;-61
2022/03/18 04:24:02;;;;;;;8.00;4.18;;;;;;;;;;4992910;28;20125;-60
2022/03/18 04:26:28;;;;;;;5.45;4.45;;;1.20;99.90;;;;;;4992602;28;20415;-60
2022/03/18 04:28:53;;;;;;;7.95;4.40;;;1.40;99.90;;;;;;4993685;28;20049;-60
2022/03/18 04:31:19;;;;;;;7.15;4.63;;;1.30;99.90;;;;;;4975135;28;20496;-60
2022/03/18 04:33:44;;;;;;;8.60;5.65;;;1.30;99.90;;;;;;4975947;28;20042;-60
2022/03/18 04:36:10;;;;;;;10.38;5.65;;;1.50;99.90;;;;;;4993224;28;20038;-60
2022/03/18 04:38:36;;;;;;;10.00;5.55;;;;;;;;;;4975406;28;20407;-59
2022/03/18 04:41:02;;;;;;;12.68;5.78;;;1.60;99.90;;;;;;4974984;28;20053;-60
2022/03/18 04:43:28;;;;;;;12.38;5.63;;;;;;;;;;4993181;28;20048;-60
2022/03/18 04:45:54;;;;;;;7.28;5.43;;;1.50;99.90;;;;;;4960449;28;20046;-60
2022/03/18 04:48:20;;;;;;;9.48;5.20;;;;;;;;;;4973535;28;20035;-60
2022/03/18 04:50:45;;;;;;;9.90;5.80;;;1.80;99.90;;;;;;4955885;28;20400;-59
2022/03/18 04:53:12;;;;;;;9.77;5.50;;;;;;;;;;4973646;28;20050;-59
2022/03/18 04:55:38;;;;;;;9.40;5.65;;;;;;;;;;4974220;28;20058;-59
2022/03/18 04:58:03;;;;;;;10.02;6.05;;;1.40;99.90;;;;;;4973212;28;20043;-60
2022/03/18 05:00:29;;;;;;;8.40;5.63;;;1.40;99.90;;;;;;4972832;28;20492;-59
2022/03/18 05:02:57;;;;;;;9.07;4.70;;;1.60;99.90;;;;;;4940002;28;20073;-60
2022/03/18 05:05:23;;;;;;;9.82;5.57;;;;;;;;;;4973406;28;20500;-60
2022/03/18 05:07:50;;;;;;;8.20;5.55;;;1.50;99.90;;;;;;4967876;28;20069;-60
2022/03/18 05:10:17;;;;;;;9.32;5.30;;;1.40;99.90;;;;;;4975114;28;20492;-60
2022/03/18 05:12:43;;;;;;;5.60;4.63;;;;;;;;;;4974948;28;20053;-59
2022/03/18 05:15:10;;;;;;;8.85;5.38;;;1.50;99.90;;;;;;4992396;28;20129;-60
2022/03/18 05:17:36;;;;;;;5.65;4.85;;;;;;;;;;4974730;28;20369;-59
2022/03/18 05:20:03;;;;;;;7.80;4.78;;;1.30;99.90;;;;;;4992573;28;20044;-58
2022/03/18 05:22:30;;;;;;;6.85;5.43;;;;;;;;;;4991822;28;20042;-59
2022/03/18 05:24:57;;;;;;;6.88;5.63;;;1.50;99.90;;;;;;4991751;28;20404;-59
2022/03/18 05:27:23;;;;;;;6.28;5.32;;;1.30;99.90;;;;;;4992639;28;20046;-59
2022/03/18 05:29:49;;;;;;;6.00;4.28;;;1.50;99.90;;;;;;4974709;28;20045;-60
2022/03/18 05:32:15;;;;;;;7.65;4.30;;;1.40;99.90;;;;;;4974744;28;20442;-59
2022/03/18 05:34:41;;;;;;;5.78;4.90;;;1.40;99.90;;;;;;4992634;28;20035;-59
2022/03/18 05:37:07;;;;;;;6.57;5.07;;;1.40;99.90;;;;;;4937337;28;20047;-59
2022/03/18 05:39:33;;;;;;;8.05;5.32;;;1.30;99.90;;;;;;4956565;28;20027;-57
2022/03/18 05:41:59;;;;;;;6.75;5.13;;;1.30;99.90;;;;;;4936018;29;20481;-57
2022/03/18 05:44:25;;;;;;;8.48;6.07;;;1.40;99.90;;;;;;4930467;28;20027;-57
2022/03/18 05:46:53;;;;;;;6.68;5.30;;;1.30;99.90;;;;;;4931886;28;20096;-56
2022/03/18 05:49:19;;;;;;;7.15;5.30;;;1.20;99.90;;;;;;4920837;28;20525;-57
2022/03/18 05:51:46;;;;;;;6.55;4.55;;;;;;;;;;4937286;28;20127;-60
2022/03/18 05:54:12;;;;;;;7.88;5.25;;;1.40;99.90;;;;;;4939466;28;20285;-57
2022/03/18 05:56:54;;;;;;;7.80;5.45;;;1.40;99.90;;;;;;4959340;28;20477;-57
2022/03/18 05:59:24;;;;;;;5.63;4.20;;;1.50;99.90;;;;;;4958997;28;20066;-56
2022/03/18 06:01:50;;;;;;;4.63;4.13;;;;;;;;;;4946076;28;20035;-59
2022/03/18 06:04:16;;;;;;;5.53;4.22;;;1.60;99.90;;;;;;4937587;28;20433;-58
2022/03/18 06:06:43;;;;;;;5.28;4.18;;;;;;;;;;4943070;28;20035;-60
2022/03/18 06:11:54;;;;;;;4.63;3.67;;;1.80;99.90;;;;;;4961187;28;20043;-57
2022/03/18 06:14:23;;;;;;;7.72;4.57;;;2.00;99.90;;;;;;4956785;28;20039;-57
2022/03/18 06:16:53;;;;;;;7.03;4.90;;;2.10;99.90;;;;;;4954337;28;20058;-57
2022/03/18 06:19:20;;;;;;;6.50;4.88;;;;;;;;;;4956756;28;20034;-56
2022/03/18 06:21:46;;;;;;;4.70;4.18;;;2.10;99.90;;;;;;4989358;28;20082;-56
2022/03/18 06:24:12;;;;;;;9.80;5.43;;;2.20;99.90;;;;;;5057978;28;20083;-57
2022/03/18 06:26:38;;;;;;;9.30;5.93;;;2.50;99.90;;;;;;5009264;28;20039;-59
2022/03/18 06:29:05;;;;;;;8.18;5.25;;;2.40;99.90;;;;;;4975062;28;20050;-58
2022/03/18 06:31:31;;;;;;;7.22;5.03;;;2.50;99.90;;;;;;4961968;28;20043;-60
2022/03/18 06:33:56;;;;;;;6.43;5.05;;;2.60;99.90;;;;;;4937007;29;20047;-60
2022/03/18 06:36:23;;;;;;;6.82;4.57;;;;;;;;;;4937466;29;20512;-59
2022/03/18 06:38:48;;;;;;;7.28;4.82;;;2.90;99.90;;;;;;4954546;29;20051;-59
2022/03/18 06:41:15;;;;;;;7.88;5.10;;;2.90;99.90;;;;;;4954134;28;20050;-59
2022/03/18 06:43:42;;;;;;;7.20;6.45;;;;;;;;;;4958667;28;20038;-58
2022/03/18 06:46:07;;;;;;;7.03;5.20;;;3.20;99.90;;;;;;4953550;28;20058;-60
2022/03/18 06:48:33;;;;;;;6.25;5.10;;;;;;;;;;4952701;28;20123;-60
2022/03/18 06:51:00;;;;;;;9.02;5.15;;;3.20;99.90;;;;;;4964337;28;20081;-62
2022/03/18 06:53:26;;;;;;;5.85;4.68;;;3.10;99.90;;;;;;4973494;28;20061;-62
2022/03/18 06:55:51;;;;;;;5.97;5.38;;;3.30;99.90;;;;;;4954214;28;20039;-60
2022/03/18 06:58:17;;;;;;;5.75;4.20;;;3.70;99.90;;;;;;4954216;29;20408;-60
2022/03/18 07:00:42;;;;;;;6.85;4.68;;;4.20;99.90;;;;;;4960886;28;20122;-60
2022/03/18 07:03:08;;;;;;;6.25;5.38;;;4.70;99.90;;;;;;4979070;28;20053;-61
2022/03/18 07:05:34;;;;;;;7.57;5.63;;;5.00;99.90;;;;;;4977673;28;20498;-60
2022/03/18 07:08:00;;;;;;;6.40;5.32;;;5.80;99.90;;;;;;4966468;28;20043;-63
2022/03/18 07:10:26;;;;;;;6.28;4.80;;;;;;;;;;4955771;28;20054;-63
2022/03/18 07:12:52;;;;;;;7.65;5.03;;;6.80;99.90;;;;;;4962924;28;20504;-63
2022/03/18 07:15:18;;;;;;;7.82;5.55;;;7.80;99.90;;;;;;4953890;28;20054;-61
2022/03/18 07:17:58;;;;;;;8.15;5.25;;;8.60;99.90;;;;;;4966826;28;20044;-61
2022/03/18 07:20:28;;;;;;;9.63;6.57;;;9.30;99.90;;;;;;4992244;28;20393;-61
2022/03/18 07:23:04;;;;;;;10.85;7.90;;;9.90;99.90;;;;;;4954583;28;20040;-61
2022/03/18 07:25:30;;;;;;;11.73;8.18;;;;;;;;;;4937766;28;20039;-62
2022/03/18 07:27:56;;;;;;;9.60;6.68;;;;;;;;;;4962650;28;20043;-62
2022/03/18 07:30:23;;;;;;;9.10;7.50;;;11.60;99.90;;;;;;5000493;28;20139;-63
2022/03/18 07:32:48;;;;;;;12.82;8.90;;;12.30;99.90;;;;;;4984512;28;20501;-62
2022/03/18 07:35:14;;;;;;;12.20;9.30;;;12.30;99.90;;;;;;4997075;28;20050;-62
2022/03/18 07:37:41;;;;;;;17.92;10.82;;;13.00;99.90;;;;;;4983944;28;20045;-63
2022/03/18 07:40:08;;;;;;;20.15;11.20;;;13.70;99.90;;;;;;4988793;28;20078;-63
2022/03/18 07:42:51;;;;;;;14.25;10.88;;;14.40;99.90;;;;;;5000261;28;20051;-65
2022/03/18 07:45:20;;;;;;;17.27;10.23;;;14.40;99.90;;;;;;5005523;28;20154;-64
2022/03/18 07:47:46;;;;;;;14.55;10.30;;;15.30;99.90;;;;;;4998139;28;20550;-62
2022/03/18 07:50:12;;;;;;;13.98;9.80;;;15.90;99.90;;;;;;5002977;28;20048;-63
2022/03/18 07:52:38;;;;;;;12.73;9.50;;;16.20;99.90;;;;;;5007646;28;20413;-64
2022/03/18 07:55:04;;;;;;;11.38;8.88;;;16.70;99.90;;;;;;5005380;28;20048;-62
2022/03/18 07:57:29;;;;;;;11.55;9.57;;;16.60;99.90;;;;;;5009351;28;20050;-65
2022/03/18 07:59:55;;;;;;;15.90;9.68;;;17.10;99.90;;;;;;5008939;28;20055;-65
2022/03/18 08:02:20;;;;;;;16.30;9.85;;;17.50;99.90;;;;;;5008655;28;20125;-65
2022/03/18 08:04:51;;;;;;;14.38;9.23;;;17.20;99.90;;;;;;5001801;28;20049;-64
2022/03/18 08:07:17;;;;;;;14.23;10.07;;;16.30;99.90;;;;;;5009740;28;20029;-63
2022/03/18 08:09:42;;;;;;;18.70;9.27;;;15.90;99.90;;;;;;4999341;28;20050;-63
2022/03/18 08:12:09;;;;;;;15.45;8.68;;;16.20;99.90;;;;;;5003772;28;20047;-63
2022/03/18 08:14:34;;;;;;;18.65;9.10;;;16.30;99.90;;;;;;5008286;28;20049;-65
2022/03/18 08:17:00;;;;;;;16.48;8.88;;;16.80;99.90;;;;;;5006850;28;20054;-62
2022/03/18 08:19:25;;;;;;;13.65;9.00;;;16.80;99.90;;;;;;4981712;28;20034;-64
2022/03/18 08:21:51;;;;;;;15.25;8.20;;;17.70;99.90;;;;;;4989611;28;20047;-63
2022/03/18 08:24:18;;;;;;;15.98;7.95;;;17.80;99.90;;;;;;5001671;28;20043;-62
2022/03/18 08:26:43;;;;;;;15.85;8.82;;;18.30;99.90;;;;;;5003424;28;20100;-64
2022/03/18 08:29:09;;;;;;;12.00;7.38;;;20.20;99.90;;;;;;5010131;28;20048;-64
2022/03/18 08:31:34;;;;;;;14.68;7.43;;;19.10;99.90;;;;;;4998611;28;20054;-65
2022/03/18 08:34:00;;;;;;;12.45;7.28;;;19.50;99.90;;;;;;5005756;28;20079;-64
2022/03/18 08:36:26;;;;;;;14.00;8.10;;;19.20;99.90;;;;;;4975956;28;20050;-62
2022/03/18 08:38:51;;;;;;;14.20;7.07;;;19.20;99.90;;;;;;5000862;28;20044;-63
2022/03/18 08:41:17;;;;;;;18.02;8.35;;;19.20;99.90;;;;;;4978334;28;20155;-64
2022/03/18 08:43:43;;;;;;;11.15;6.88;;;19.10;99.90;;;;;;5000006;28;20048;-65
2022/03/18 08:46:08;;;;;;;11.75;6.43;;;19.60;99.90;;;;;;5003187;28;20456;-64
2022/03/18 08:48:34;;;;;;;17.05;6.90;;;18.70;99.90;;;;;;4994883;28;20138;-63
2022/03/18 08:50:59;;;;;;;17.63;7.30;;;18.40;99.90;;;;;;4987257;28;20048;-64
2022/03/18 08:53:25;;;;;;;11.55;7.00;;;18.30;99.90;;;;;;5004278;28;20510;-64
2022/03/18 08:55:50;;;;;;;14.30;7.28;;;18.60;99.90;;;;;;5006342;28;20050;-65
2022/03/18 08:58:16;;;;;;;16.60;8.32;;;19.00;99.90;;;;;;5007325;28;21502;-65
2022/03/18 09:00:42;;;;;;;11.25;6.15;;;19.10;99.90;;;;;;5000216;28;20061;-63
2022/03/18 09:03:07;;;;;;;16.67;6.32;;;19.20;99.90;;;;;;5007642;28;20077;-64
2022/03/18 09:05:34;;;;;;;13.15;6.25;;;19.50;99.90;;;;;;4981026;28;20422;-65
2022/03/18 09:07:59;;;;;;;15.75;6.50;;;18.40;99.90;;;;;;5009603;28;20131;-65
2022/03/18 09:10:25;;;;;;;16.55;5.53;;;18.50;99.90;;;;;;4987569;28;20116;-66
2022/03/18 09:12:58;;;;;;;15.68;6.38;;;18.80;99.90;;;;;;4984339;28;20093;-64
2022/03/18 09:15:24;;;;;;;12.73;5.82;;;19.20;99.90;;;;;;5002467;28;20048;-63
2022/03/18 09:17:50;;;;;;;16.00;6.20;;;19.90;99.90;;;;;;4994761;28;20040;-63
2022/03/18 09:20:15;;;;;;;17.67;6.70;;;20.30;99.90;;;;;;5000466;28;20040;-64
2022/03/18 09:22:41;;;;;;;10.32;5.88;;;21.20;99.90;;;;;;4959258;28;20465;-64
2022/03/18 09:25:08;;;;;;;14.88;6.13;;;22.30;99.90;;;;;;4975121;28;20054;-65
2022/03/18 09:27:33;;;;;;;12.15;5.60;;;23.10;99.90;;;;;;4977832;28;20917;-66
2022/03/18 09:30:00;;;;;;;16.15;5.38;;;24.20;99.90;;;;;;5004083;28;20047;-66
2022/03/18 09:32:27;;;;;;;16.58;5.05;;;25.10;99.90;;;;;;4991105;28;20052;-67
2022/03/18 09:34:54;;;;;;;10.90;4.55;;;25.00;98.20;;;;;;4992654;28;20146;-67
2022/03/18 09:37:19;;;;;;;11.73;4.63;;;25.60;97.00;;;;;;4991961;28;20135;-66
2022/03/18 09:39:45;;;;;;;13.23;4.97;;;26.10;95.80;;;;;;5005267;28;20051;-66
2022/03/18 09:42:11;;;;;;;13.65;4.88;;;26.20;94.50;;;;;;5001172;28;20545;-65
2022/03/18 09:44:38;;;;;;;10.90;4.68;;;26.40;93.60;;;;;;5002853;28;20036;-64
2022/03/18 09:47:07;;;;;;;14.20;4.97;;;27.30;93.00;;;;;;5000335;28;20045;-64
2022/03/18 09:49:36;;;;;;;9.95;4.80;;;28.30;92.00;;;;;;4979783;28;20045;-66
2022/03/18 09:52:06;;;;;;;14.88;5.28;;;28.70;91.00;;;;;;4984451;28;20059;-65
2022/03/18 09:54:34;;;;;;;13.40;5.85;;;29.50;90.20;;;;;;4982424;28;20589;-65
2022/03/18 09:57:01;;;;;;;11.15;4.38;;;29.40;88.80;;;;;;4998935;28;20047;-65
2022/03/18 09:59:28;;;;;;;12.48;3.95;;;29.60;87.10;;;;;;4994685;28;20182;-66
2022/03/18 10:02:28;;;;;;;11.30;4.95;;;27.40;83.40;;;;;;5003410;28;20045;-65
2022/03/18 10:05:08;;;;;;;11.85;4.47;;;27.20;81.30;;;;;;4982755;28;20078;-66
2022/03/18 10:07:34;;;;;;;12.38;4.63;;;28.60;84.10;;;;;;4985350;28;20105;-66
2022/03/18 10:10:11;;;;;;;13.10;4.15;;;28.60;83.40;;;;;;4997896;28;20051;-65
2022/03/18 10:12:38;;;;;;;11.98;3.90;;;29.20;82.20;;;;;;5000727;28;20065;-65
2022/03/18 10:15:13;;;;;;;12.05;4.43;;;28.00;83.60;;;;;;4988307;28;20052;-65
2022/03/18 10:17:43;;;;;;;;;;;27.00;83.80;;;;;;5002314;28;20042;-64
2022/03/18 10:20:22;;;;;;;9.27;4.43;;;25.50;84.40;;;;;;4981253;28;19964;-65
2022/03/18 10:22:48;;;;;;;12.90;6.05;;;24.10;88.30;;;;;;4983079;28;20137;-65
2022/03/18 10:25:34;;;;;;;10.85;4.47;;;23.20;88.30;;;;;;4981697;28;20040;-66
2022/03/18 10:27:59;;;;;;;14.25;5.47;;;22.80;90.70;;;;;;4972301;28;20368;-65
2022/03/18 10:30:26;;;;;;;13.68;6.57;;;22.30;90.60;;;;;;4975614;28;20043;-66
2022/03/18 10:32:53;;;;;;;15.98;4.43;;;22.60;91.00;;;;;;4974423;28;20063;-63
2022/03/18 10:38:35;;;;;;;13.55;4.90;;;20.90;91.60;;;;;;4972769;28;20138;-64
2022/03/18 10:41:23;;;;;;;14.57;4.70;;;20.40;91.60;;;;;;4963995;28;20408;-62
2022/03/18 10:43:53;;;;;;;18.13;5.30;;;20.00;92.80;;;;;;4985148;28;20044;-63
2022/03/18 10:46:20;;;;;;;17.15;5.95;;;19.40;93.80;;;;;;4961652;28;20051;-67
2022/03/18 10:49:06;;;;;;;13.02;5.20;;;19.20;93.90;;;;;;4991114;28;20061;-68
2022/03/18 10:51:33;;;;;;;12.25;4.97;;;19.30;95.20;;;;;;4977469;28;20069;-62
2022/03/18 10:53:59;;;;;;;9.43;5.13;;;19.00;95.60;;;;;;4979262;28;20381;-65
2022/03/18 10:56:25;;;;;;;12.40;5.38;;;18.80;95.80;;;;;;5003096;28;20943;-65
2022/03/18 10:58:51;;;;;;;15.25;5.40;;;18.70;96.00;;;;;;5004751;28;20990;-63
2022/03/18 11:01:18;;;;;;;13.82;4.82;;;18.70;95.40;;;;;;4998103;28;20045;-63
2022/03/18 11:03:45;;;;;;;12.75;5.22;;;18.60;95.90;;;;;;4981238;28;20074;-63
2022/03/18 11:06:12;;;;;;;10.70;5.57;;;18.60;96.50;;;;;;4998265;28;20040;-65
2022/03/18 11:08:48;;;;;;;11.00;4.72;;;18.00;97.20;;;;;;4984745;28;20385;-66
2022/03/18 11:11:15;;;;;;;12.98;5.35;;;18.20;98.00;;;;;;5005864;28;20539;-65
2022/03/18 11:13:48;;;;;;;11.15;4.93;;;18.40;97.80;;;;;;4993364;28;20161;-64
2022/03/18 11:16:17;;;;;;;13.40;5.00;;;18.40;97.60;;;;;;5009296;28;20052;-65
2022/03/18 11:18:45;;;;;;;13.10;5.80;;;18.30;97.30;;;;;;4966568;28;20051;-64
2022/03/18 11:21:11;;;;;;;12.52;5.22;;;18.20;97.80;;;;;;4956338;28;20055;-63
2022/03/18 11:23:41;;;;;;;13.68;4.78;;;18.10;98.40;;;;;;4940049;28;20051;-62
2022/03/18 11:26:07;;;;;;;9.63;4.30;;;18.10;98.80;;;;;;4949318;28;20756;-63
2022/03/18 11:28:33;;;;;;;18.77;5.05;;;17.90;98.80;;;;;;5004149;28;20125;-64
2022/03/18 11:31:07;;;;;;;12.52;3.97;;;17.80;98.60;;;;;;4973612;28;20051;-65
2022/03/18 11:33:34;;;;;;;10.35;4.03;;;17.70;98.80;;;;;;4933267;28;20104;-63
2022/03/18 11:36:11;;;;;;;8.00;2.90;;;18.10;99.20;;;;;;4949672;28;20096;-63
2022/03/18 11:38:51;;;;;;;11.90;3.63;;;17.80;98.30;;;;;;4975718;28;20050;-63
2022/03/18 11:41:19;;;;;;;12.27;4.22;;;17.70;98.30;;;;;;4952894;28;20224;-65
2022/03/18 11:43:44;;;;;;;9.40;3.95;;;17.30;98.60;;;;;;5002311;28;20050;-63
2022/03/18 11:46:13;;;;;;;8.98;4.07;;;16.20;98.90;;;;;;4959900;28;20057;-62
2022/03/18 11:49:06;;;;;;;12.05;4.55;;;16.70;99.80;;;;;;4945560;28;20051;-65
2022/03/18 11:51:34;;;;;;;13.50;4.70;;;17.30;99.60;;;;;;4964158;28;20070;-63
2022/03/18 11:54:05;;;;;;;11.90;4.70;;;17.30;99.90;;;;;;4988408;28;20062;-65
2022/03/18 11:56:41;;;;;;;9.85;3.88;;;17.10;99.90;;;;;;4995550;28;20487;-63
2022/03/18 11:59:29;;;;;;;10.43;4.13;;;17.20;99.90;;;;;;4938524;28;20050;-66
2022/03/18 12:02:09;;;;;;;14.80;4.25;;;17.20;99.90;;;;;;5002428;28;20066;-63
2022/03/18 12:04:41;;;;;;;9.50;4.05;;;17.60;99.60;;;;;;4983964;28;20063;-63
2022/03/18 12:07:24;;;;;;;8.43;3.58;;;17.60;98.90;;;;;;5010480;28;20044;-64
2022/03/18 12:10:04;;;;;;;13.60;4.72;;;17.60;99.60;;;;;;4990824;28;20046;-63
2022/03/18 12:12:38;;;;;;;10.73;4.07;;;17.70;99.90;;;;;;4953012;28;20043;-68
2022/03/18 12:15:17;;;;;;;14.45;3.95;;;17.50;99.90;;;;;;4964075;28;20039;-62
2022/03/18 12:17:53;;;;;;;7.53;3.17;;;17.90;99.90;;;;;;4978935;28;20046;-62
2022/03/18 12:20:31;;;;;;;15.77;4.22;;;17.90;99.30;;;;;;4952883;28;20050;-63
2022/03/18 12:23:05;;;;;;;8.55;2.95;;;17.30;99.20;;;;;;4962033;28;20050;-63
2022/03/18 12:25:30;;;;;;;14.30;3.53;;;17.50;98.80;;;;;;4944830;28;20058;-62
2022/03/18 12:27:56;;;;;;;11.63;2.03;;;17.70;99.30;;;;;;4940574;28;20053;-63
2022/03/18 12:30:26;;;;;;;12.68;2.13;;;17.60;99.10;;;;;;4977695;28;20525;-65
2022/03/18 12:32:54;;;;;;;9.32;1.83;;;17.40;98.30;;;;;;4980632;28;20058;-65
2022/03/18 12:35:25;;;;;;;8.32;2.03;;;17.40;98.50;;;;;;4982741;28;20044;-63
2022/03/18 12:38:06;;;;;;;11.23;2.58;;;17.20;98.40;;;;;;4972736;28;20527;-63
2022/03/18 12:40:33;;;;;;;26.52;4.57;;;17.00;98.50;;;;;;4970065;28;20130;-65
2022/03/18 12:43:01;;;;;;;9.85;2.10;;;17.20;99.90;;;;;;4972166;28;20054;-64
2022/03/18 12:45:44;;;;;;;4.65;1.58;;;17.30;99.80;;;;;;4962678;28;20045;-64
2022/03/18 12:48:13;;;;;;;9.25;2.78;;;17.30;99.60;;;;;;4972886;28;20046;-65
2022/03/18 12:50:39;;;;;;;7.32;2.80;;;17.10;99.10;;;;;;4957863;28;20534;-66
2022/03/18 12:53:14;;;;;;;13.18;4.07;;;17.20;99.40;;;;;;4987823;28;20151;-66
2022/03/18 12:55:42;;;;;;;11.50;3.28;;;17.10;99.40;;;;;;4977026;28;20054;-66
2022/03/18 12:58:07;;;;;;;11.02;3.55;;;17.40;99.50;;;;;;4986910;28;20149;-63
2022/03/18 13:00:51;;;;;;;7.15;2.70;;;17.10;99.90;;;;;;4970737;28;20047;-65
2022/03/18 13:03:20;;;;;;;12.43;2.83;;;17.40;99.90;;;;;;4986436;28;20051;-62
2022/03/18 13:05:48;;;;;;;8.68;3.80;;;17.30;99.50;;;;;;4982893;28;20038;-62
2022/03/18 13:08:16;;;;;;;11.75;3.30;;;17.30;99.50;;;;;;4978134;28;20035;-62
2022/03/18 13:10:42;;;;;;;11.63;3.05;;;17.40;99.80;;;;;;4963123;28;20047;-63
2022/03/18 13:13:10;;;;;;;10.45;3.28;;;17.20;99.90;;;;;;4976534;28;21147;-65
2022/03/18 13:15:39;;;;;;;11.07;4.03;;;17.40;99.90;;;;;;4989146;28;20044;-63
2022/03/18 13:18:12;;;;;;;11.23;3.55;;;17.30;99.80;;;;;;4993888;28;20051;-65
2022/03/18 13:20:40;;;;;;;11.93;3.60;;;17.10;99.90;;;;;;4974741;28;20046;-63
2022/03/18 13:23:07;;;;;;;9.73;4.05;;;17.20;99.90;;;;;;4989521;28;20042;-63